Fuji Maru — JD2030 — position and weather

sailwx.info

Track history (hours):
 
Tides and Currents Weather Stations Pressure Air Temp Water Temp Dewpoint Dewpoint Depression Visibility Wind Speed Wind Dir Waves Ship Positions

Fuji Maru

Last reported at 2018-Jun-22 09:45 UTC. Time now 2018-Jun-22 16:54 UTC.
Position N 35°38' E 139°45'.

Length 38 m; draft 4.4 m.

Type: Tug. MMSI: 431001102.

Date/timePositionNaut miles runAvg speedWind from/ knotsBaromVisibWave heightAir tempDewpointWater temp
2018-Jun-22 09:45N 35°38' E 139°45'0 0.0
2018-Jun-22 00:04N 35°38' E 139°45'0 0.0
2018-Jun-21 23:57N 35°38' E 139°45'0 0.0
2018-Jun-21 23:30N 35°38' E 139°45'2 3.4
2018-Jun-21 22:56N 35°36' E 139°46'2 3.2
2018-Jun-21 22:23N 35°35' E 139°48'2 4.5
2018-Jun-21 22:00N 35°34' E 139°49'2 2.2
2018-Jun-21 20:53N 35°36' E 139°47'1 2.6
2018-Jun-21 20:28N 35°37' E 139°47'2 0.1
2018-Jun-21 03:27N 35°38' E 139°46'2 4.6
2018-Jun-21 03:00N 35°36' E 139°46'1 2.4
2018-Jun-21 02:30N 35°37' E 139°46'1 0.2
2018-Jun-20 22:23N 35°38' E 139°45'0 0.0
2018-Jun-20 21:04N 35°38' E 139°45'0 0.0
2018-Jun-20 20:37N 35°38' E 139°45'0 0.0
2018-Jun-20 20:25N 35°38' E 139°45'0 0.0
2018-Jun-20 18:58N 35°38' E 139°45'0 0.0
2018-Jun-20 18:29N 35°38' E 139°45'0 0.0
2018-Jun-20 17:59N 35°38' E 139°45'0 0.0
2018-Jun-20 08:41N 35°38' E 139°45'0 0.0
2018-Jun-20 08:17N 35°38' E 139°45'0 0.0
2018-Jun-20 08:00N 35°38' E 139°45'1 1.3
2018-Jun-20 07:19N 35°37' E 139°46'0 0.0
2018-Jun-20 06:53N 35°37' E 139°46'1 1.1
2018-Jun-20 06:18N 35°37' E 139°46'1 1.2
2018-Jun-20 05:37N 35°37' E 139°46'0 0.1
2018-Jun-19 23:18N 35°38' E 139°46'2 6.4
2018-Jun-19 22:55N 35°36' E 139°48'1 2.2
2018-Jun-19 22:30N 35°35' E 139°48'2 3.2
2018-Jun-19 22:00N 35°34' E 139°49'4 7.3
2018-Jun-19 21:30N 35°37' E 139°46'2 0.9
2018-Jun-19 19:44N 35°38' E 139°45'0 0.0
2018-Jun-19 08:06N 35°38' E 139°45'0 0.0
2018-Jun-19 07:50N 35°38' E 139°45'0 0.0
2018-Jun-19 06:54N 35°38' E 139°45'0 0.0
2018-Jun-19 05:29N 35°38' E 139°45'2 4.5
2018-Jun-19 04:56N 35°36' E 139°48'0 0.4
2018-Jun-19 04:24N 35°37' E 139°48'2 1.0
2018-Jun-19 02:03N 35°38' E 139°45'0 0.0
2018-Jun-19 01:46N 35°38' E 139°45'0 0.0
2018-Jun-19 01:03N 35°38' E 139°45'0 0.0
2018-Jun-19 00:17N 35°38' E 139°45'0 0.0
2018-Jun-18 23:58N 35°38' E 139°45'0 0.0
2018-Jun-18 23:13N 35°38' E 139°45'0 0.0
2018-Jun-18 22:47N 35°38' E 139°45'0 0.0
2018-Jun-18 22:23N 35°38' E 139°45'0 0.0
2018-Jun-18 22:00N 35°38' E 139°45'0 0.0
2018-Jun-18 21:29N 35°38' E 139°45'0 0.0
2018-Jun-18 20:58N 35°38' E 139°45'0 0.0
2018-Jun-18 20:28N 35°38' E 139°45'0 0.0
2018-Jun-18 19:43N 35°38' E 139°45'0 0.0
2018-Jun-18 19:18N 35°38' E 139°45'0 0.0
2018-Jun-18 18:56N 35°38' E 139°45'0 0.0
2018-Jun-18 18:17N 35°38' E 139°45'0 0.0
2018-Jun-18 17:55N 35°38' E 139°45'0 0.0
2018-Jun-18 17:30N 35°38' E 139°45'0 0.0
2018-Jun-18 16:59N 35°38' E 139°45'0 0.0
2018-Jun-18 16:29N 35°38' E 139°45'0 0.0
2018-Jun-18 15:59N 35°38' E 139°45'0 0.0
2018-Jun-18 15:30N 35°38' E 139°45'0 0.0
2018-Jun-18 14:53N 35°38' E 139°45'0 0.0
2018-Jun-18 14:29N 35°38' E 139°45'0 0.0
2018-Jun-18 13:59N 35°38' E 139°45'0 0.0
2018-Jun-18 12:55N 35°38' E 139°45'0 0.0
2018-Jun-18 11:23N 35°38' E 139°45'2 4.5
2018-Jun-18 10:56N 35°36' E 139°46'1 0.9
2018-Jun-18 10:13N 35°37' E 139°46'0 0.0
2018-Jun-18 09:56N 35°37' E 139°46'1 0.5
2018-Jun-18 07:03N 35°38' E 139°46'1 9.0
2018-Jun-18 06:59N 35°38' E 139°46'2 3.1
2018-Jun-18 06:28N 35°36' E 139°47'3 6.4
2018-Jun-18 06:00N 35°34' E 139°49'4 7.5
2018-Jun-18 05:30N 35°37' E 139°46'2 3.0
2018-Jun-18 04:58N 35°38' E 139°45'0 0.0
2018-Jun-18 04:29N 35°38' E 139°45'0 0.0
2018-Jun-18 03:55N 35°38' E 139°45'0 0.0
2018-Jun-18 03:28N 35°38' E 139°45'0 0.0
2018-Jun-18 02:59N 35°38' E 139°45'0 0.0
2018-Jun-18 02:27N 35°38' E 139°45'0 0.0
2018-Jun-18 01:54N 35°38' E 139°45'0 0.0
2018-Jun-18 01:14N 35°38' E 139°45'0 0.0
2018-Jun-18 00:59N 35°38' E 139°45'1 1.6
2018-Jun-18 00:29N 35°37' E 139°46'2 3.0
2018-Jun-17 23:48N 35°36' E 139°47'0 0.1
2018-Jun-17 22:24N 35°36' E 139°47'2 3.7
2018-Jun-17 21:59N 35°35' E 139°48'0 0.9
2018-Jun-17 21:29N 35°35' E 139°49'4 0.4
2018-Jun-17 09:08N 35°38' E 139°45'110.9
2018-Jun-17 09:00N 35°37' E 139°46'1 0.4
2018-Jun-17 06:57N 35°36' E 139°46'2 4.5
2018-Jun-17 06:28N 35°38' E 139°45'0 0.0
2018-Jun-17 04:54N 35°38' E 139°45'0 0.0
2018-Jun-17 04:30N 35°38' E 139°45'0 0.0
2018-Jun-17 04:00N 35°38' E 139°45'0 0.0
2018-Jun-17 03:21N 35°38' E 139°45'0 0.0
2018-Jun-17 02:46N 35°38' E 139°45'0 0.0
2018-Jun-17 02:30N 35°38' E 139°45'0 0.0
2018-Jun-17 00:09N 35°38' E 139°45'0 0.0
2018-Jun-16 23:59N 35°38' E 139°45'0 0.0
2018-Jun-16 23:14N 35°38' E 139°45'1 3.9
2018-Jun-16 22:59N 35°37' E 139°46'1 1.9
2018-Jun-16 22:25N 35°36' E 139°46'2 4.4
2018-Jun-16 22:00N 35°35' E 139°48'1 2.1
2018-Jun-16 21:29N 35°35' E 139°47'0 0.0
2018-Jun-16 21:00N 35°35' E 139°47'1 2.0
2018-Jun-16 20:30N 35°36' E 139°47'1 1.6
2018-Jun-16 20:00N 35°37' E 139°46'1 0.1
2018-Jun-15 23:00N 35°38' E 139°45'1 2.8
2018-Jun-15 22:30N 35°37' E 139°46'1 1.5
2018-Jun-15 21:59N 35°36' E 139°46'3 5.9
2018-Jun-15 21:30N 35°34' E 139°49'0 0.6
2018-Jun-15 21:00N 35°34' E 139°49'3 4.9
2018-Jun-15 20:25N 35°36' E 139°46'2 3.6
2018-Jun-15 19:59N 35°38' E 139°46'1 0.4
2018-Jun-15 18:41N 35°38' E 139°45'0 0.0
2018-Jun-15 18:24N 35°38' E 139°45'0 0.0
2018-Jun-15 15:34N 35°38' E 139°45'1 0.1
2018-Jun-15 04:51N 35°37' E 139°46'2 2.8
2018-Jun-15 04:02N 35°35' E 139°47'0 3.0
2018-Jun-15 03:59N 35°35' E 139°47'1 1.6
2018-Jun-15 03:26N 35°36' E 139°48'1 1.8
2018-Jun-15 02:59N 35°35' E 139°48'0 0.5
2018-Jun-15 02:30N 35°35' E 139°47'4 1.1
2018-Jun-14 23:12N 35°38' E 139°45'0 0.0
2018-Jun-14 18:46N 35°38' E 139°45'0 0.0
2018-Jun-14 18:30N 35°38' E 139°45'0 0.0
2018-Jun-14 17:57N 35°38' E 139°45'0 0.0
2018-Jun-14 16:39N 35°38' E 139°45'0 0.0
2018-Jun-14 15:35N 35°38' E 139°45'0 0.0
2018-Jun-14 15:26N 35°38' E 139°45'0 0.0
2018-Jun-14 14:57N 35°38' E 139°45'0 0.1
2018-Jun-14 10:30N 35°38' E 139°46'2 3.1
2018-Jun-14 10:00N 35°37' E 139°47'1 1.8
2018-Jun-14 09:29N 35°36' E 139°47'2 3.1
2018-Jun-14 08:58N 35°37' E 139°46'1 0.7
2018-Jun-14 07:51N 35°38' E 139°46'0 0.4
2018-Jun-14 07:14N 35°37' E 139°46'1 0.1
2018-Jun-14 00:11N 35°38' E 139°45'0 0.0
2018-Jun-13 23:34N 35°38' E 139°45'0 0.0
2018-Jun-13 23:19N 35°38' E 139°45'0 0.0
2018-Jun-13 22:55N 35°38' E 139°45'0 0.0
2018-Jun-13 15:27N 35°38' E 139°45'0 0.0
2018-Jun-13 14:39N 35°38' E 139°45'0 0.0
2018-Jun-13 14:19N 35°38' E 139°45'0 0.0
2018-Jun-13 13:13N 35°38' E 139°45'0 0.0
2018-Jun-13 00:34N 35°38' E 139°45'0 0.0
2018-Jun-13 00:29N 35°38' E 139°45'0 0.0
2018-Jun-12 23:53N 35°38' E 139°45'0 0.0
2018-Jun-12 23:24N 35°38' E 139°45'0 0.0
2018-Jun-12 21:49N 35°38' E 139°45'0 0.0
2018-Jun-12 21:22N 35°38' E 139°45'0 0.0
2018-Jun-12 20:59N 35°38' E 139°45'2 4.1
2018-Jun-12 20:28N 35°36' E 139°46'0 1.0
2018-Jun-12 20:00N 35°37' E 139°46'2 2.9
2018-Jun-12 19:24N 35°38' E 139°45'0 0.0
2018-Jun-12 18:07N 35°38' E 139°45'0 0.0
2018-Jun-12 17:58N 35°38' E 139°45'0 0.0
2018-Jun-12 12:41N 35°38' E 139°45'0 0.0
2018-Jun-12 12:30N 35°38' E 139°45'0 0.0
2018-Jun-12 11:59N 35°38' E 139°45'0 0.0
2018-Jun-12 11:26N 35°38' E 139°45'0 0.0
2018-Jun-12 10:57N 35°38' E 139°45'  
Track history (hours):
 
Tides and Currents Weather Stations Pressure Air Temp Water Temp Dewpoint Dewpoint Depression Visibility Wind Speed Wind Dir Waves Ship Positions

Fuji Maru

Last reported at 2018-Jun-22 09:45 UTC. Time now 2018-Jun-22 16:54 UTC.
Position N 35°38' E 139°45'.

Length 38 m; draft 4.4 m.

Type: Tug. MMSI: 431001102.

Date/timePositionNaut miles runAvg speedWind from/ knotsBaromVisibWave heightAir tempDewpointWater temp
2018-Jun-22 09:45N 35°38' E 139°45'0 0.0
2018-Jun-22 00:04N 35°38' E 139°45'0 0.0
2018-Jun-21 23:57N 35°38' E 139°45'0 0.0
2018-Jun-21 23:30N 35°38' E 139°45'2 3.4
2018-Jun-21 22:56N 35°36' E 139°46'2 3.2
2018-Jun-21 22:23N 35°35' E 139°48'2 4.5
2018-Jun-21 22:00N 35°34' E 139°49'2 2.2
2018-Jun-21 20:53N 35°36' E 139°47'1 2.6
2018-Jun-21 20:28N 35°37' E 139°47'2 0.1
2018-Jun-21 03:27N 35°38' E 139°46'2 4.6
2018-Jun-21 03:00N 35°36' E 139°46'1 2.4
2018-Jun-21 02:30N 35°37' E 139°46'1 0.2
2018-Jun-20 22:23N 35°38' E 139°45'0 0.0
2018-Jun-20 21:04N 35°38' E 139°45'0 0.0
2018-Jun-20 20:37N 35°38' E 139°45'0 0.0
2018-Jun-20 20:25N 35°38' E 139°45'0 0.0
2018-Jun-20 18:58N 35°38' E 139°45'0 0.0
2018-Jun-20 18:29N 35°38' E 139°45'0 0.0
2018-Jun-20 17:59N 35°38' E 139°45'0 0.0
2018-Jun-20 08:41N 35°38' E 139°45'0 0.0
2018-Jun-20 08:17N 35°38' E 139°45'0 0.0
2018-Jun-20 08:00N 35°38' E 139°45'1 1.3
2018-Jun-20 07:19N 35°37' E 139°46'0 0.0
2018-Jun-20 06:53N 35°37' E 139°46'1 1.1
2018-Jun-20 06:18N 35°37' E 139°46'1 1.2
2018-Jun-20 05:37N 35°37' E 139°46'0 0.1
2018-Jun-19 23:18N 35°38' E 139°46'2 6.4
2018-Jun-19 22:55N 35°36' E 139°48'1 2.2
2018-Jun-19 22:30N 35°35' E 139°48'2 3.2
2018-Jun-19 22:00N 35°34' E 139°49'4 7.3
2018-Jun-19 21:30N 35°37' E 139°46'2 0.9
2018-Jun-19 19:44N 35°38' E 139°45'0 0.0
2018-Jun-19 08:06N 35°38' E 139°45'0 0.0
2018-Jun-19 07:50N 35°38' E 139°45'0 0.0
2018-Jun-19 06:54N 35°38' E 139°45'0 0.0
2018-Jun-19 05:29N 35°38' E 139°45'2 4.5
2018-Jun-19 04:56N 35°36' E 139°48'0 0.4
2018-Jun-19 04:24N 35°37' E 139°48'2 1.0
2018-Jun-19 02:03N 35°38' E 139°45'0 0.0
2018-Jun-19 01:46N 35°38' E 139°45'0 0.0
2018-Jun-19 01:03N 35°38' E 139°45'0 0.0
2018-Jun-19 00:17N 35°38' E 139°45'0 0.0
2018-Jun-18 23:58N 35°38' E 139°45'0 0.0
2018-Jun-18 23:13N 35°38' E 139°45'0 0.0
2018-Jun-18 22:47N 35°38' E 139°45'0 0.0
2018-Jun-18 22:23N 35°38' E 139°45'0 0.0
2018-Jun-18 22:00N 35°38' E 139°45'0 0.0
2018-Jun-18 21:29N 35°38' E 139°45'0 0.0
2018-Jun-18 20:58N 35°38' E 139°45'0 0.0
2018-Jun-18 20:28N 35°38' E 139°45'0 0.0
2018-Jun-18 19:43N 35°38' E 139°45'0 0.0
2018-Jun-18 19:18N 35°38' E 139°45'0 0.0
2018-Jun-18 18:56N 35°38' E 139°45'0 0.0
2018-Jun-18 18:17N 35°38' E 139°45'0 0.0
2018-Jun-18 17:55N 35°38' E 139°45'0 0.0
2018-Jun-18 17:30N 35°38' E 139°45'0 0.0
2018-Jun-18 16:59N 35°38' E 139°45'0 0.0
2018-Jun-18 16:29N 35°38' E 139°45'0 0.0
2018-Jun-18 15:59N 35°38' E 139°45'0 0.0
2018-Jun-18 15:30N 35°38' E 139°45'0 0.0
2018-Jun-18 14:53N 35°38' E 139°45'0 0.0
2018-Jun-18 14:29N 35°38' E 139°45'0 0.0
2018-Jun-18 13:59N 35°38' E 139°45'0 0.0
2018-Jun-18 12:55N 35°38' E 139°45'0 0.0
2018-Jun-18 11:23N 35°38' E 139°45'2 4.5
2018-Jun-18 10:56N 35°36' E 139°46'1 0.9
2018-Jun-18 10:13N 35°37' E 139°46'0 0.0
2018-Jun-18 09:56N 35°37' E 139°46'1 0.5
2018-Jun-18 07:03N 35°38' E 139°46'1 9.0
2018-Jun-18 06:59N 35°38' E 139°46'2 3.1
2018-Jun-18 06:28N 35°36' E 139°47'3 6.4
2018-Jun-18 06:00N 35°34' E 139°49'4 7.5
2018-Jun-18 05:30N 35°37' E 139°46'2 3.0
2018-Jun-18 04:58N 35°38' E 139°45'0 0.0
2018-Jun-18 04:29N 35°38' E 139°45'0 0.0
2018-Jun-18 03:55N 35°38' E 139°45'0 0.0
2018-Jun-18 03:28N 35°38' E 139°45'0 0.0
2018-Jun-18 02:59N 35°38' E 139°45'0 0.0
2018-Jun-18 02:27N 35°38' E 139°45'0 0.0
2018-Jun-18 01:54N 35°38' E 139°45'0 0.0
2018-Jun-18 01:14N 35°38' E 139°45'0 0.0
2018-Jun-18 00:59N 35°38' E 139°45'1 1.6
2018-Jun-18 00:29N 35°37' E 139°46'2 3.0
2018-Jun-17 23:48N 35°36' E 139°47'0 0.1
2018-Jun-17 22:24N 35°36' E 139°47'2 3.7
2018-Jun-17 21:59N 35°35' E 139°48'0 0.9
2018-Jun-17 21:29N 35°35' E 139°49'4 0.4
2018-Jun-17 09:08N 35°38' E 139°45'110.9
2018-Jun-17 09:00N 35°37' E 139°46'1 0.4
2018-Jun-17 06:57N 35°36' E 139°46'2 4.5
2018-Jun-17 06:28N 35°38' E 139°45'0 0.0
2018-Jun-17 04:54N 35°38' E 139°45'0 0.0
2018-Jun-17 04:30N 35°38' E 139°45'0 0.0
2018-Jun-17 04:00N 35°38' E 139°45'0 0.0
2018-Jun-17 03:21N 35°38' E 139°45'0 0.0
2018-Jun-17 02:46N 35°38' E 139°45'0 0.0
2018-Jun-17 02:30N 35°38' E 139°45'0 0.0
2018-Jun-17 00:09N 35°38' E 139°45'0 0.0
2018-Jun-16 23:59N 35°38' E 139°45'0 0.0
2018-Jun-16 23:14N 35°38' E 139°45'1 3.9
2018-Jun-16 22:59N 35°37' E 139°46'1 1.9
2018-Jun-16 22:25N 35°36' E 139°46'2 4.4
2018-Jun-16 22:00N 35°35' E 139°48'1 2.1
2018-Jun-16 21:29N 35°35' E 139°47'0 0.0
2018-Jun-16 21:00N 35°35' E 139°47'1 2.0
2018-Jun-16 20:30N 35°36' E 139°47'1 1.6
2018-Jun-16 20:00N 35°37' E 139°46'1 0.1
2018-Jun-15 23:00N 35°38' E 139°45'1 2.8
2018-Jun-15 22:30N 35°37' E 139°46'1 1.5
2018-Jun-15 21:59N 35°36' E 139°46'3 5.9
2018-Jun-15 21:30N 35°34' E 139°49'0 0.6
2018-Jun-15 21:00N 35°34' E 139°49'3 4.9
2018-Jun-15 20:25N 35°36' E 139°46'2 3.6
2018-Jun-15 19:59N 35°38' E 139°46'1 0.4
2018-Jun-15 18:41N 35°38' E 139°45'0 0.0
2018-Jun-15 18:24N 35°38' E 139°45'0 0.0
2018-Jun-15 15:34N 35°38' E 139°45'1 0.1
2018-Jun-15 04:51N 35°37' E 139°46'2 2.8
2018-Jun-15 04:02N 35°35' E 139°47'0 3.0
2018-Jun-15 03:59N 35°35' E 139°47'1 1.6
2018-Jun-15 03:26N 35°36' E 139°48'1 1.8
2018-Jun-15 02:59N 35°35' E 139°48'0 0.5
2018-Jun-15 02:30N 35°35' E 139°47'4 1.1
2018-Jun-14 23:12N 35°38' E 139°45'0 0.0
2018-Jun-14 18:46N 35°38' E 139°45'0 0.0
2018-Jun-14 18:30N 35°38' E 139°45'0 0.0
2018-Jun-14 17:57N 35°38' E 139°45'0 0.0
2018-Jun-14 16:39N 35°38' E 139°45'0 0.0
2018-Jun-14 15:35N 35°38' E 139°45'0 0.0
2018-Jun-14 15:26N 35°38' E 139°45'0 0.0
2018-Jun-14 14:57N 35°38' E 139°45'0 0.1
2018-Jun-14 10:30N 35°38' E 139°46'2 3.1
2018-Jun-14 10:00N 35°37' E 139°47'1 1.8
2018-Jun-14 09:29N 35°36' E 139°47'2 3.1
2018-Jun-14 08:58N 35°37' E 139°46'1 0.7
2018-Jun-14 07:51N 35°38' E 139°46'0 0.4
2018-Jun-14 07:14N 35°37' E 139°46'1 0.1
2018-Jun-14 00:11N 35°38' E 139°45'0 0.0
2018-Jun-13 23:34N 35°38' E 139°45'0 0.0
2018-Jun-13 23:19N 35°38' E 139°45'0 0.0
2018-Jun-13 22:55N 35°38' E 139°45'0 0.0
2018-Jun-13 15:27N 35°38' E 139°45'0 0.0
2018-Jun-13 14:39N 35°38' E 139°45'0 0.0
2018-Jun-13 14:19N 35°38' E 139°45'0 0.0
2018-Jun-13 13:13N 35°38' E 139°45'0 0.0
2018-Jun-13 00:34N 35°38' E 139°45'0 0.0
2018-Jun-13 00:29N 35°38' E 139°45'0 0.0
2018-Jun-12 23:53N 35°38' E 139°45'0 0.0
2018-Jun-12 23:24N 35°38' E 139°45'0 0.0
2018-Jun-12 21:49N 35°38' E 139°45'0 0.0
2018-Jun-12 21:22N 35°38' E 139°45'0 0.0
2018-Jun-12 20:59N 35°38' E 139°45'2 4.1
2018-Jun-12 20:28N 35°36' E 139°46'0 1.0
2018-Jun-12 20:00N 35°37' E 139°46'2 2.9
2018-Jun-12 19:24N 35°38' E 139°45'0 0.0
2018-Jun-12 18:07N 35°38' E 139°45'0 0.0
2018-Jun-12 17:58N 35°38' E 139°45'0 0.0
2018-Jun-12 12:41N 35°38' E 139°45'0 0.0
2018-Jun-12 12:30N 35°38' E 139°45'0 0.0
2018-Jun-12 11:59N 35°38' E 139°45'0 0.0
2018-Jun-12 11:26N 35°38' E 139°45'0 0.0
2018-Jun-12 10:57N 35°38' E 139°45'  

Dump ship's entire track history